createdAt,value
2024-02-22T00:03:58.061Z,4.41
2024-02-22T00:14:04.047Z,4.40
2024-02-22T00:24:11.199Z,4.34
2024-02-22T00:34:18.377Z,4.25
2024-02-22T00:44:24.648Z,4.19
2024-02-22T00:54:30.664Z,4.11
2024-02-22T01:04:37.629Z,3.98
2024-02-22T01:14:44.757Z,3.84
2024-02-22T01:24:52.077Z,3.74
2024-02-22T01:34:59.589Z,3.75
2024-02-22T01:45:05.935Z,3.75
2024-02-22T01:55:12.548Z,3.76
2024-02-22T02:05:17.654Z,3.69
2024-02-22T02:15:24.796Z,3.67
2024-02-22T02:25:32.068Z,3.77
2024-02-22T02:35:39.197Z,3.91
2024-02-22T02:45:46.486Z,4.00
2024-02-22T02:55:53.826Z,4.04
2024-02-22T03:06:01.199Z,4.13
2024-02-22T03:16:09.651Z,4.22
2024-02-22T03:26:16.668Z,4.35
2024-02-22T03:36:23.947Z,4.42
2024-02-22T03:46:31.210Z,4.54
2024-02-22T03:56:39.166Z,4.72
2024-02-22T04:06:46.462Z,4.81
2024-02-22T04:16:53.581Z,4.78
2024-02-22T04:27:00.418Z,4.74
2024-02-22T04:37:07.718Z,4.66
2024-02-22T04:47:14.253Z,4.62
2024-02-22T04:57:21.318Z,4.63
2024-02-22T05:07:28.260Z,4.79
2024-02-22T05:17:35.256Z,4.97
2024-02-22T05:27:42.448Z,5.18
2024-02-22T05:37:49.619Z,5.30
2024-02-22T05:47:57.215Z,5.60
2024-02-22T05:58:04.103Z,5.89
2024-02-22T06:08:13.341Z,6.01
2024-02-22T06:18:19.027Z,6.05
2024-02-22T06:28:26.738Z,6.17
2024-02-22T06:38:33.720Z,6.24
2024-02-22T06:48:40.272Z,6.32
2024-02-22T06:58:45.832Z,6.48
2024-02-22T07:08:55.533Z,6.75
2024-02-22T07:19:03.242Z,6.91
2024-02-22T07:29:13.061Z,6.99
2024-02-22T07:39:21.533Z,7.19
2024-02-22T07:49:28.728Z,7.39
2024-02-22T07:59:36.159Z,7.53
2024-02-22T08:09:42.791Z,7.72
2024-02-22T08:19:50.156Z,7.87
2024-02-22T08:29:56.413Z,7.90
2024-02-22T08:50:10.448Z,8.17
2024-02-22T09:00:20.541Z,8.47
2024-02-22T09:10:27.718Z,8.61
2024-02-22T09:20:34.867Z,8.83
2024-02-22T09:30:41.115Z,9.15
2024-02-22T09:40:47.685Z,9.25
2024-02-22T09:50:57.663Z,9.46
2024-02-22T10:01:05.763Z,9.58
2024-02-22T10:11:12.143Z,9.54
2024-02-22T10:21:18.814Z,9.45
2024-02-22T10:31:26.183Z,9.45
2024-02-22T10:41:35.443Z,9.49
2024-02-22T10:51:40.495Z,9.48
2024-02-22T11:01:49.959Z,9.50
2024-02-22T11:12:03.147Z,9.55
2024-02-22T11:22:19.539Z,9.66
2024-02-22T11:32:30.074Z,9.76
2024-02-22T11:42:38.060Z,9.63
2024-02-22T11:52:46.315Z,9.54
2024-02-22T12:02:54.565Z,9.53
2024-02-22T12:13:04.274Z,9.57
2024-02-22T12:23:13.112Z,9.62
2024-02-22T12:33:28.141Z,9.80
2024-02-22T12:43:35.628Z,9.92
2024-02-22T12:53:44.993Z,10.00
2024-02-22T13:03:49.558Z,10.14
2024-02-22T13:13:56.716Z,10.33
2024-02-22T13:24:03.608Z,10.43
2024-02-22T13:34:11.071Z,10.34
2024-02-22T13:44:26.488Z,10.22
2024-02-22T13:54:38.207Z,10.12
2024-02-22T14:04:44.678Z,10.11
2024-02-22T14:14:50.912Z,10.13
2024-02-22T14:24:56.703Z,10.09
2024-02-22T14:35:04.531Z,9.86
2024-02-22T14:45:08.691Z,9.67
2024-02-22T14:55:15.599Z,9.57
2024-02-22T15:05:22.957Z,9.49
2024-02-22T15:15:31.235Z,9.43
2024-02-22T15:25:38.387Z,9.42
2024-02-22T15:35:44.766Z,9.32
2024-02-22T15:45:51.997Z,9.17
2024-02-22T15:55:58.546Z,9.09
2024-02-22T16:06:05.081Z,8.96
2024-02-22T16:16:11.108Z,8.81
2024-02-22T16:26:17.756Z,8.75
2024-02-22T16:36:25.296Z,8.62
2024-02-22T16:46:31.083Z,8.52
2024-02-22T16:56:37.764Z,8.43
2024-02-22T17:06:45.075Z,8.39
2024-02-22T17:16:51.242Z,8.35
2024-02-22T17:26:58.614Z,8.27
2024-02-22T17:37:06.061Z,8.20
2024-02-22T17:47:13.770Z,8.19
2024-02-22T17:57:20.988Z,8.17
2024-02-22T18:07:26.981Z,8.08
2024-02-22T18:17:32.936Z,8.01
2024-02-22T18:27:40.434Z,8.02
2024-02-22T18:37:48.031Z,7.95
2024-02-22T18:47:55.120Z,7.90
2024-02-22T18:58:02.885Z,7.91
2024-02-22T19:08:10.849Z,7.91
2024-02-22T19:18:16.706Z,7.82
2024-02-22T19:28:25.346Z,7.79
2024-02-22T19:38:32.709Z,7.81
2024-02-22T19:48:40.145Z,7.73
2024-02-22T19:58:46.566Z,7.57
2024-02-22T20:08:53.324Z,7.49
2024-02-22T20:19:00.416Z,7.46
2024-02-22T20:29:07.309Z,7.41
2024-02-22T20:39:14.323Z,7.33
2024-02-22T20:49:21.821Z,7.24
2024-02-22T20:59:29.252Z,7.22
2024-02-22T21:09:36.591Z,7.26
2024-02-22T21:19:43.791Z,7.22
2024-02-22T21:29:50.534Z,7.25
2024-02-22T21:40:00.927Z,7.36
2024-02-22T21:50:10.474Z,7.42
2024-02-22T22:00:15.864Z,7.46
2024-02-22T22:10:22.928Z,7.59
2024-02-22T22:20:30.323Z,7.64
2024-02-22T22:30:36.486Z,7.59
2024-02-22T22:40:43.143Z,7.58
2024-02-22T22:50:50.438Z,7.65
2024-02-22T23:00:57.859Z,7.75
2024-02-22T23:11:05.249Z,7.83
2024-02-22T23:21:11.738Z,7.93
2024-02-22T23:31:18.942Z,7.95
2024-02-22T23:41:29.769Z,7.95
2024-02-22T23:51:40.083Z,8.02
